createdAt,value
2018-06-04T00:01:52.804Z,24.70
2018-06-04T00:04:20.369Z,26.03
2018-06-04T00:06:47.658Z,24.87
2018-06-04T00:09:14.964Z,27.33
2018-06-04T00:11:42.243Z,25.40
2018-06-04T00:14:09.516Z,26.93
2018-06-04T00:16:36.806Z,25.73
2018-06-04T00:19:04.097Z,26.13
2018-06-04T00:21:32.324Z,25.83
2018-06-04T00:23:59.637Z,24.13
2018-06-04T00:26:26.925Z,23.20
2018-06-04T00:28:54.197Z,24.00
2018-06-04T00:31:21.504Z,26.17
2018-06-04T00:33:48.767Z,25.77
2018-06-04T00:36:16.051Z,26.07
2018-06-04T00:38:43.353Z,26.43
2018-06-04T00:41:10.629Z,23.30
2018-06-04T00:43:37.913Z,23.40
2018-06-04T00:46:05.394Z,22.07
2018-06-04T00:48:32.685Z,20.83
2018-06-04T00:50:59.992Z,22.57
2018-06-04T00:53:27.254Z,21.70
2018-06-04T00:56:00.462Z,21.03
2018-06-04T00:58:27.726Z,22.50
2018-06-04T01:00:55.018Z,19.57
2018-06-04T01:03:22.281Z,22.07
2018-06-04T01:05:49.618Z,19.57
2018-06-04T01:08:16.913Z,21.30
2018-06-04T01:10:44.193Z,20.43
2018-06-04T01:13:11.477Z,20.20
2018-06-04T01:15:38.745Z,21.90
2018-06-04T01:18:06.002Z,21.90
2018-06-04T01:20:33.262Z,20.20
2018-06-04T01:23:00.533Z,21.23
2018-06-04T01:25:27.799Z,23.23
2018-06-04T01:27:55.057Z,20.93
2018-06-04T01:30:22.337Z,21.07
2018-06-04T01:32:49.621Z,21.57
2018-06-04T01:35:16.923Z,19.60
2018-06-04T01:37:44.205Z,21.03
2018-06-04T01:40:11.513Z,21.20
2018-06-04T01:42:38.769Z,21.70
2018-06-04T01:45:06.045Z,20.80
2018-06-04T01:47:33.552Z,19.63
2018-06-04T01:50:00.862Z,22.30
2018-06-04T01:52:28.146Z,24.37
2018-06-04T01:54:55.405Z,24.50
2018-06-04T01:57:22.730Z,25.47
2018-06-04T01:59:49.993Z,24.57
2018-06-04T02:02:17.273Z,27.30
2018-06-04T02:04:44.538Z,27.07
2018-06-04T02:07:11.829Z,27.40
2018-06-04T02:09:39.089Z,27.90
2018-06-04T02:12:06.349Z,26.43
2018-06-04T02:14:33.601Z,27.20
2018-06-04T02:17:00.881Z,29.10
2018-06-04T02:19:28.173Z,28.17
2018-06-04T02:21:55.469Z,28.20
2018-06-04T02:24:22.745Z,28.47
2018-06-04T02:26:50.022Z,28.33
2018-06-04T02:29:17.319Z,29.00
2018-06-04T02:31:44.601Z,28.60
2018-06-04T02:34:11.866Z,28.20
2018-06-04T02:36:39.137Z,28.00
2018-06-04T02:39:06.431Z,29.00
2018-06-04T02:41:33.713Z,28.47
2018-06-04T02:44:01.005Z,29.07
2018-06-04T02:46:28.293Z,30.10
2018-06-04T02:48:55.825Z,30.57
2018-06-04T02:51:23.112Z,28.43
2018-06-04T02:53:50.381Z,28.80
2018-06-04T02:56:17.654Z,28.40
2018-06-04T02:58:44.914Z,30.30
2018-06-04T03:01:12.213Z,29.07
2018-06-04T03:03:39.489Z,30.20
2018-06-04T03:06:06.758Z,29.47
2018-06-04T03:08:34.025Z,30.57
2018-06-04T03:11:01.282Z,32.80
2018-06-04T03:13:28.547Z,32.00
2018-06-04T03:15:55.843Z,35.77
2018-06-04T03:18:23.112Z,35.80
2018-06-04T03:20:50.529Z,38.67
2018-06-04T03:23:17.801Z,38.17
2018-06-04T03:25:45.073Z,37.70
2018-06-04T03:28:12.331Z,36.73
2018-06-04T03:30:39.605Z,38.40
2018-06-04T03:33:06.862Z,40.67
2018-06-04T03:35:34.158Z,39.07
2018-06-04T03:38:01.421Z,36.77
2018-06-04T03:40:28.685Z,39.33
2018-06-04T03:42:56.019Z,37.00
2018-06-04T03:45:23.288Z,38.23
2018-06-04T03:47:50.575Z,38.13
2018-06-04T03:50:18.103Z,37.33
2018-06-04T03:52:45.382Z,35.93
2018-06-04T03:55:12.709Z,37.70
2018-06-04T03:57:39.985Z,39.03
2018-06-04T04:00:07.277Z,41.13
2018-06-04T04:02:34.541Z,37.20
2018-06-04T04:05:01.813Z,36.40
2018-06-04T04:07:29.086Z,37.40
2018-06-04T04:09:56.393Z,38.87
2018-06-04T04:12:23.650Z,36.13
2018-06-04T04:14:50.965Z,37.17
2018-06-04T04:17:18.238Z,36.93
2018-06-04T04:19:45.507Z,37.00
2018-06-04T04:22:12.805Z,38.23
2018-06-04T04:24:40.064Z,35.07
2018-06-04T04:27:07.339Z,35.50
2018-06-04T04:29:34.610Z,36.70
2018-06-04T04:32:01.892Z,33.00
2018-06-04T04:34:29.173Z,33.00
2018-06-04T04:36:56.450Z,31.00
2018-06-04T04:39:23.752Z,31.97
2018-06-04T04:41:51.023Z,33.80
2018-06-04T04:44:18.318Z,31.40
2018-06-04T04:46:45.635Z,32.33
2018-06-04T04:49:12.902Z,31.33
2018-06-04T04:51:40.373Z,32.97
2018-06-04T04:54:07.652Z,33.40
2018-06-04T04:56:34.921Z,33.10
2018-06-04T04:59:02.222Z,31.80
2018-06-04T05:01:29.497Z,33.10
2018-06-04T05:03:56.838Z,30.73
2018-06-04T05:06:24.129Z,33.20
2018-06-04T05:08:51.393Z,33.30
2018-06-04T05:11:18.681Z,33.27
2018-06-04T05:13:45.949Z,34.63
2018-06-04T05:16:13.246Z,32.00
2018-06-04T05:18:40.513Z,32.60
2018-06-04T05:21:07.814Z,31.27
2018-06-04T05:23:35.083Z,32.00
2018-06-04T05:26:02.483Z,31.57
2018-06-04T05:28:29.751Z,33.03
2018-06-04T05:30:57.042Z,32.70
2018-06-04T05:33:24.309Z,34.07
2018-06-04T05:35:51.606Z,34.00
2018-06-04T05:38:18.891Z,34.10
2018-06-04T05:40:46.158Z,33.40
2018-06-04T05:43:13.417Z,33.43
2018-06-04T05:45:40.676Z,33.07
2018-06-04T05:48:08.021Z,33.67
2018-06-04T05:50:35.339Z,32.03
2018-06-04T05:53:02.880Z,32.87
2018-06-04T05:55:30.163Z,36.30
2018-06-04T05:57:57.462Z,34.20
2018-06-04T06:00:24.739Z,31.13
2018-06-04T06:02:52.005Z,30.80
2018-06-04T06:05:19.294Z,32.37
2018-06-04T06:07:46.553Z,29.83
2018-06-04T06:10:13.849Z,28.53
2018-06-04T06:12:41.116Z,27.00
2018-06-04T06:15:08.388Z,29.00
2018-06-04T06:17:35.662Z,26.17
2018-06-04T06:20:02.978Z,25.90
2018-06-04T06:22:30.317Z,24.77
2018-06-04T06:24:57.588Z,22.70
2018-06-04T06:27:24.845Z,22.30
2018-06-04T06:29:52.108Z,21.00
2018-06-04T06:32:19.378Z,24.27
2018-06-04T06:34:46.641Z,20.33
2018-06-04T06:37:13.941Z,20.40
2018-06-04T06:39:41.248Z,21.77
2018-06-04T06:42:08.509Z,23.57
2018-06-04T06:44:35.810Z,22.60
2018-06-04T06:47:03.074Z,24.10
2018-06-04T06:49:30.355Z,23.77
2018-06-04T06:51:57.653Z,22.80
2018-06-04T06:54:25.245Z,22.60
2018-06-04T06:56:52.496Z,24.67
2018-06-04T06:59:19.766Z,28.10
2018-06-04T07:01:47.074Z,25.30
2018-06-04T07:04:14.369Z,25.40
2018-06-04T07:06:41.649Z,26.57
2018-06-04T07:09:08.933Z,25.90
2018-06-04T07:11:36.208Z,25.70
2018-06-04T07:14:03.523Z,28.60
2018-06-04T07:16:30.817Z,27.10
2018-06-04T07:18:58.102Z,27.20
2018-06-04T07:21:25.394Z,27.73
2018-06-04T07:23:52.630Z,28.70
2018-06-04T07:26:19.887Z,32.50
2018-06-04T07:28:47.162Z,27.77
2018-06-04T07:31:14.450Z,28.70
2018-06-04T07:33:41.730Z,28.30
2018-06-04T07:36:09.513Z,29.00
2018-06-04T07:38:36.917Z,26.87
2018-06-04T07:41:04.213Z,26.90
2018-06-04T07:43:31.486Z,26.57
2018-06-04T07:45:58.769Z,24.77
2018-06-04T07:48:26.026Z,25.27
2018-06-04T07:50:53.326Z,24.30
2018-06-04T07:53:20.626Z,25.40
2018-06-04T07:55:48.086Z,22.47
2018-06-04T07:58:15.377Z,23.50
2018-06-04T08:00:42.731Z,23.37
2018-06-04T08:03:09.965Z,21.90
2018-06-04T08:05:37.237Z,21.20
2018-06-04T08:08:04.544Z,19.50
2018-06-04T08:10:31.823Z,19.10
2018-06-04T08:12:59.109Z,19.60
2018-06-04T08:15:26.389Z,15.87
2018-06-04T08:17:53.703Z,15.10
2018-06-04T08:20:20.985Z,15.90
2018-06-04T08:22:48.297Z,17.07
2018-06-04T08:25:15.571Z,16.33
2018-06-04T08:27:42.865Z,16.60
2018-06-04T08:30:10.125Z,16.10
2018-06-04T08:32:37.441Z,14.07
2018-06-04T08:35:04.729Z,13.80
2018-06-04T08:37:31.989Z,13.10
2018-06-04T08:39:59.281Z,14.50
2018-06-04T08:42:26.606Z,14.90
2018-06-04T08:44:53.886Z,13.30
2018-06-04T08:47:21.173Z,12.63
2018-06-04T08:49:48.425Z,12.13
2018-06-04T08:52:15.707Z,12.70
2018-06-04T08:54:42.973Z,12.50
2018-06-04T08:57:10.462Z,12.10
2018-06-04T08:59:37.721Z,13.27
2018-06-04T09:02:05.218Z,14.17
2018-06-04T09:04:32.487Z,13.70
2018-06-04T09:06:59.773Z,14.20
2018-06-04T09:09:27.093Z,14.20
2018-06-04T09:11:54.374Z,11.57
2018-06-04T09:14:21.646Z,10.90
2018-06-04T09:16:48.918Z,11.33
2018-06-04T09:19:16.212Z,11.20
2018-06-04T09:21:43.506Z,11.20
2018-06-04T09:24:10.986Z,11.10
2018-06-04T09:26:38.253Z,10.87
2018-06-04T09:29:05.532Z,10.23
2018-06-04T09:31:32.799Z,10.30
2018-06-04T09:34:00.085Z,10.00
2018-06-04T09:36:27.341Z,9.60
2018-06-04T09:38:54.649Z,10.67
2018-06-04T09:41:21.945Z,10.47
2018-06-04T09:43:49.217Z,9.97
2018-06-04T09:46:16.496Z,10.37
2018-06-04T09:48:43.769Z,9.77
2018-06-04T09:51:11.417Z,10.50
2018-06-04T09:53:38.709Z,9.80
2018-06-04T09:56:05.975Z,10.67
2018-06-04T09:58:33.432Z,9.67
2018-06-04T10:01:00.709Z,10.37
2018-06-04T10:03:27.980Z,9.70
2018-06-04T10:05:55.241Z,9.13
2018-06-04T10:08:22.548Z,10.93
2018-06-04T10:10:49.813Z,13.13
2018-06-04T10:13:17.103Z,12.73
2018-06-04T10:15:44.398Z,12.43
2018-06-04T10:18:11.710Z,11.73
2018-06-04T10:20:38.985Z,14.17
2018-06-04T10:23:06.327Z,13.77
2018-06-04T10:25:33.586Z,13.03
2018-06-04T10:28:00.862Z,14.33
2018-06-04T10:30:28.152Z,13.30
2018-06-04T10:32:55.422Z,12.83
2018-06-04T10:35:22.718Z,11.87
2018-06-04T10:37:50.010Z,13.97
2018-06-04T10:40:17.311Z,14.03
2018-06-04T10:42:44.633Z,13.93
2018-06-04T10:45:11.950Z,16.60
2018-06-04T10:47:40.394Z,16.40
2018-06-04T10:50:07.741Z,17.80
2018-06-04T10:52:35.051Z,17.03
2018-06-04T10:55:02.344Z,18.03
2018-06-04T10:57:29.625Z,17.03
2018-06-04T10:59:57.275Z,18.60
2018-06-04T11:02:24.537Z,17.80
2018-06-04T11:04:51.872Z,19.27
2018-06-04T11:07:19.090Z,18.17
2018-06-04T11:09:46.376Z,19.27
2018-06-04T11:12:13.648Z,17.37
2018-06-04T11:14:40.921Z,18.23
2018-06-04T11:17:08.210Z,20.13
2018-06-04T11:19:35.497Z,18.50
2018-06-04T11:22:02.796Z,19.23
2018-06-04T11:24:30.082Z,19.43
2018-06-04T11:26:57.349Z,18.20
2018-06-04T11:29:24.637Z,21.03
2018-06-04T11:31:51.929Z,18.47
2018-06-04T11:34:19.273Z,18.30
2018-06-04T11:36:46.586Z,16.87
2018-06-04T11:39:13.921Z,18.97
2018-06-04T11:41:41.213Z,17.83
2018-06-04T11:44:08.504Z,17.50
2018-06-04T11:46:35.780Z,17.73
2018-06-04T11:49:03.078Z,17.00
2018-06-04T11:51:30.424Z,16.30
2018-06-04T11:53:57.725Z,17.83
2018-06-04T11:56:25.039Z,15.70
2018-06-04T11:58:52.289Z,17.07
2018-06-04T12:01:19.717Z,16.93
2018-06-04T12:03:46.978Z,14.70
2018-06-04T12:06:14.364Z,13.87
2018-06-04T12:08:41.685Z,13.37
2018-06-04T12:11:09.002Z,15.80
2018-06-04T12:13:36.324Z,17.17
2018-06-04T12:16:03.597Z,14.57
2018-06-04T12:18:30.889Z,15.13
2018-06-04T12:20:58.176Z,13.90
2018-06-04T12:23:25.452Z,14.53
2018-06-04T12:25:52.791Z,12.53
2018-06-04T12:28:20.091Z,12.07
2018-06-04T12:30:47.417Z,11.80
2018-06-04T12:33:14.676Z,11.03
2018-06-04T12:35:42.003Z,12.47
2018-06-04T12:38:09.301Z,10.77
2018-06-04T12:40:36.592Z,11.33
2018-06-04T12:43:03.916Z,10.53
2018-06-04T12:45:31.224Z,9.70
2018-06-04T12:47:58.502Z,9.50
2018-06-04T12:50:25.976Z,9.77
2018-06-04T12:52:53.254Z,10.50
2018-06-04T12:55:20.573Z,10.33
2018-06-04T12:57:47.851Z,8.97
2018-06-04T13:00:15.154Z,9.00
2018-06-04T13:02:42.640Z,8.50
2018-06-04T13:05:09.929Z,8.60
2018-06-04T13:07:37.242Z,7.07
2018-06-04T13:10:04.534Z,8.23
2018-06-04T13:12:31.849Z,7.87
2018-06-04T13:14:59.121Z,8.30
2018-06-04T13:17:26.428Z,8.00
2018-06-04T13:19:53.728Z,10.20
2018-06-04T13:22:21.030Z,8.90
2018-06-04T13:24:48.308Z,9.30
2018-06-04T13:27:15.607Z,7.77
2018-06-04T13:29:42.869Z,8.57
2018-06-04T13:32:10.176Z,8.93
2018-06-04T13:34:37.453Z,8.80
2018-06-04T13:37:04.733Z,9.53
2018-06-04T13:39:32.046Z,9.23
2018-06-04T13:41:59.272Z,9.97
2018-06-04T13:44:26.625Z,8.63
2018-06-04T13:46:53.925Z,9.73
2018-06-04T13:49:21.215Z,11.33
2018-06-04T13:51:48.531Z,10.27
2018-06-04T13:54:15.828Z,11.17
2018-06-04T13:56:43.955Z,12.20
2018-06-04T13:59:11.269Z,13.90
2018-06-04T14:01:38.543Z,11.33
2018-06-04T14:04:05.988Z,11.63
2018-06-04T14:06:33.273Z,10.60
2018-06-04T14:09:00.545Z,13.53
2018-06-04T14:11:27.860Z,14.40
2018-06-04T14:13:55.116Z,14.10
2018-06-04T14:16:22.429Z,15.90
2018-06-04T14:18:49.734Z,15.73
2018-06-04T14:21:17.009Z,15.90
2018-06-04T14:23:44.292Z,17.50
2018-06-04T14:26:11.569Z,16.97
2018-06-04T14:28:38.865Z,15.27
2018-06-04T14:31:06.257Z,15.17
2018-06-04T14:33:33.552Z,14.40
2018-06-04T14:36:00.833Z,15.07
2018-06-04T14:38:28.117Z,15.93
2018-06-04T14:40:55.449Z,16.47
2018-06-04T14:43:22.727Z,15.60
2018-06-04T14:45:50.425Z,14.23
2018-06-04T14:48:17.707Z,15.87
2018-06-04T14:50:44.977Z,16.47
2018-06-04T14:53:12.248Z,15.77
2018-06-04T14:55:39.569Z,14.80
2018-06-04T14:58:06.849Z,15.47
2018-06-04T15:00:34.120Z,14.73
2018-06-04T15:03:01.428Z,14.43
2018-06-04T15:05:28.992Z,12.50
2018-06-04T15:07:56.280Z,14.50
2018-06-04T15:10:23.542Z,13.33
2018-06-04T15:12:50.871Z,11.50
2018-06-04T15:15:18.224Z,10.27
2018-06-04T15:17:45.445Z,12.50
2018-06-04T15:20:12.793Z,13.40
2018-06-04T15:22:40.096Z,12.73
2018-06-04T15:25:07.383Z,15.20
2018-06-04T15:27:34.692Z,16.10
2018-06-04T15:30:01.983Z,13.87
2018-06-04T15:32:29.279Z,14.13
2018-06-04T15:34:56.557Z,12.23
2018-06-04T15:37:23.836Z,14.03
2018-06-04T15:39:51.121Z,14.00
2018-06-04T15:42:18.381Z,14.80
2018-06-04T15:44:45.641Z,15.97
2018-06-04T15:47:12.964Z,16.73
2018-06-04T15:49:40.228Z,16.93
2018-06-04T15:52:07.553Z,17.97
2018-06-04T15:54:34.872Z,16.73
2018-06-04T15:57:02.141Z,17.20
2018-06-04T15:59:29.411Z,17.60
2018-06-04T16:01:56.697Z,18.33
2018-06-04T16:04:23.970Z,19.20
2018-06-04T16:06:51.444Z,18.00
2018-06-04T16:09:18.703Z,19.90
2018-06-04T16:11:45.979Z,21.57
2018-06-04T16:14:13.272Z,20.80
2018-06-04T16:16:40.533Z,22.47
2018-06-04T16:19:07.809Z,23.17
2018-06-04T16:21:35.081Z,21.00
2018-06-04T16:24:02.409Z,20.20
2018-06-04T16:26:29.684Z,19.13
2018-06-04T16:28:56.973Z,17.40
2018-06-04T16:31:24.308Z,21.87
2018-06-04T16:33:51.540Z,21.97
2018-06-04T16:36:18.829Z,20.87
2018-06-04T16:38:46.157Z,20.03
2018-06-04T16:41:13.498Z,19.87
2018-06-04T16:43:40.782Z,19.27
2018-06-04T16:46:08.058Z,18.03
2018-06-04T16:48:35.341Z,18.97
2018-06-04T16:51:02.627Z,19.23
2018-06-04T16:53:29.920Z,19.10
2018-06-04T16:55:57.205Z,22.60
2018-06-04T16:58:24.477Z,28.57
2018-06-04T17:00:51.786Z,65.70
2018-06-04T17:03:19.061Z,45.80
2018-06-04T17:05:46.324Z,23.17
2018-06-04T17:08:13.825Z,28.93
2018-06-04T17:10:41.129Z,23.53
2018-06-04T17:13:08.501Z,18.53
2018-06-04T17:15:35.782Z,21.00
2018-06-04T17:18:03.072Z,18.83
2018-06-04T17:20:30.389Z,16.40
2018-06-04T17:22:57.671Z,14.47
2018-06-04T17:25:24.925Z,14.57
2018-06-04T17:27:52.224Z,13.50
2018-06-04T17:30:19.500Z,14.37
2018-06-04T17:32:46.801Z,14.80
2018-06-04T17:35:14.073Z,13.03
2018-06-04T17:37:41.371Z,15.40
2018-06-04T17:40:08.664Z,15.60
2018-06-04T17:42:35.941Z,15.70
2018-06-04T17:45:03.289Z,14.87
2018-06-04T17:47:30.543Z,16.00
2018-06-04T17:49:57.877Z,15.73
2018-06-04T17:52:25.151Z,15.70
2018-06-04T17:54:52.419Z,15.60
2018-06-04T17:57:19.696Z,14.50
2018-06-04T17:59:46.956Z,13.40
2018-06-04T18:02:14.213Z,13.00
2018-06-04T18:04:41.549Z,12.23
2018-06-04T18:07:08.817Z,13.70
2018-06-04T18:09:36.264Z,12.10
2018-06-04T18:12:03.559Z,13.63
2018-06-04T18:14:30.833Z,13.07
2018-06-04T18:16:58.101Z,12.47
2018-06-04T18:19:25.389Z,12.27
2018-06-04T18:21:52.695Z,12.63
2018-06-04T18:24:20.006Z,12.70
2018-06-04T18:26:47.292Z,11.60
2018-06-04T18:29:14.576Z,12.63
2018-06-04T18:31:41.861Z,13.23
2018-06-04T18:34:09.141Z,12.47
2018-06-04T18:36:36.414Z,12.83
2018-06-04T18:39:05.117Z,14.47
2018-06-04T18:41:32.377Z,16.20
2018-06-04T18:43:59.664Z,15.33
2018-06-04T18:46:26.957Z,19.70
2018-06-04T18:48:54.253Z,20.73
2018-06-04T18:51:21.577Z,20.67
2018-06-04T18:53:48.845Z,20.10
2018-06-04T18:56:16.144Z,19.43
2018-06-04T18:58:43.417Z,19.67
2018-06-04T19:01:10.706Z,20.37
2018-06-04T19:03:37.991Z,19.93
2018-06-04T19:06:05.289Z,20.60
2018-06-04T19:08:32.571Z,20.33
2018-06-04T19:10:59.981Z,18.40
2018-06-04T19:13:27.257Z,18.00
2018-06-04T19:15:54.573Z,16.97
2018-06-04T19:18:21.841Z,16.27
2018-06-04T19:20:49.160Z,17.00
2018-06-04T19:23:16.405Z,18.17
2018-06-04T19:25:43.681Z,18.23
2018-06-04T19:28:10.985Z,18.33
2018-06-04T19:30:38.294Z,18.70
2018-06-04T19:33:05.829Z,19.20
2018-06-04T19:35:35.690Z,20.60
2018-06-04T19:38:04.137Z,18.07
2018-06-04T19:40:31.496Z,18.00
2018-06-04T19:42:58.780Z,19.43
2018-06-04T19:45:26.068Z,18.77
2018-06-04T19:47:53.333Z,20.53
2018-06-04T19:50:20.640Z,18.40
2018-06-04T19:52:47.938Z,19.20
2018-06-04T19:55:15.209Z,19.70
2018-06-04T19:57:42.564Z,20.77
2018-06-04T20:00:09.882Z,21.93
2018-06-04T20:02:37.149Z,21.17
2018-06-04T20:05:04.440Z,21.53
2018-06-04T20:07:31.728Z,20.53
2018-06-04T20:09:59.029Z,21.87
2018-06-04T20:12:26.550Z,22.60
2018-06-04T20:14:53.841Z,20.60
2018-06-04T20:17:21.116Z,19.43
2018-06-04T20:19:48.385Z,20.23
2018-06-04T20:22:15.685Z,19.87
2018-06-04T20:24:42.972Z,20.70
2018-06-04T20:27:10.249Z,22.23
2018-06-04T20:29:37.537Z,21.20
2018-06-04T20:32:04.817Z,21.67
2018-06-04T20:34:32.096Z,21.87
2018-06-04T20:36:59.377Z,21.80
2018-06-04T20:39:26.683Z,22.20
2018-06-04T20:41:53.962Z,23.17
2018-06-04T20:44:21.311Z,21.83
2018-06-04T20:46:48.588Z,24.03
2018-06-04T20:49:15.861Z,22.80
2018-06-04T20:51:43.181Z,22.53
2018-06-04T20:54:10.463Z,22.80
2018-06-04T20:56:37.779Z,20.10
2018-06-04T20:59:05.020Z,20.27
2018-06-04T21:01:32.272Z,20.63
2018-06-04T21:03:59.540Z,20.97
2018-06-04T21:06:26.809Z,20.37
2018-06-04T21:08:54.077Z,19.20
2018-06-04T21:11:21.340Z,20.93
2018-06-04T21:13:48.805Z,22.23
2018-06-04T21:16:16.077Z,21.60
2018-06-04T21:18:43.356Z,21.93
2018-06-04T21:21:10.720Z,22.10
2018-06-04T21:23:38.124Z,22.20
2018-06-04T21:26:05.394Z,20.73
2018-06-04T21:28:32.664Z,21.30
2018-06-04T21:30:59.978Z,21.70
2018-06-04T21:33:27.247Z,22.07
2018-06-04T21:35:54.559Z,20.57
2018-06-04T21:38:21.868Z,23.43
2018-06-04T21:40:49.148Z,24.57
2018-06-04T21:43:16.433Z,24.40
2018-06-04T21:45:43.726Z,23.93
2018-06-04T21:48:11.016Z,24.20
2018-06-04T21:50:38.277Z,25.27
2018-06-04T21:53:05.549Z,22.53
2018-06-04T21:55:32.841Z,25.73
2018-06-04T21:58:00.116Z,25.63
2018-06-04T22:00:27.379Z,27.83
2018-06-04T22:02:54.692Z,26.13
2018-06-04T22:05:21.963Z,27.37
2018-06-04T22:07:49.296Z,23.67
2018-06-04T22:10:16.559Z,24.70
2018-06-04T22:12:43.824Z,22.17
2018-06-04T22:15:11.316Z,23.30
2018-06-04T22:17:38.576Z,21.97
2018-06-04T22:20:05.865Z,21.23
2018-06-04T22:22:33.142Z,21.20
2018-06-04T22:25:00.417Z,23.53
2018-06-04T22:27:27.701Z,23.33
2018-06-04T22:29:54.977Z,23.37
2018-06-04T22:32:22.245Z,22.87
2018-06-04T22:34:49.513Z,22.37
2018-06-04T22:37:16.781Z,24.07
2018-06-04T22:39:44.037Z,25.67
2018-06-04T22:42:11.308Z,24.47
2018-06-04T22:44:39.513Z,24.50
2018-06-04T22:47:06.776Z,26.77
2018-06-04T22:49:34.033Z,28.80
2018-06-04T22:52:01.302Z,28.30
2018-06-04T22:54:28.565Z,29.20
2018-06-04T22:56:55.818Z,34.10
2018-06-04T22:59:23.080Z,32.00
2018-06-04T23:01:50.348Z,32.33
2018-06-04T23:04:17.652Z,33.87
2018-06-04T23:06:44.921Z,32.73
2018-06-04T23:09:12.213Z,31.30
2018-06-04T23:11:39.465Z,29.90
2018-06-04T23:14:06.733Z,27.53
2018-06-04T23:16:34.257Z,26.07
2018-06-04T23:19:01.529Z,24.40
2018-06-04T23:21:28.796Z,22.30
2018-06-04T23:23:56.052Z,23.00
2018-06-04T23:26:23.349Z,23.27
2018-06-04T23:28:50.610Z,22.50
2018-06-04T23:31:17.900Z,23.37
2018-06-04T23:33:45.168Z,23.90
2018-06-04T23:36:12.438Z,25.60
2018-06-04T23:38:40.009Z,23.40
2018-06-04T23:41:07.561Z,20.83
2018-06-04T23:43:34.879Z,20.50
2018-06-04T23:46:02.181Z,19.30
2018-06-04T23:48:29.462Z,20.20
2018-06-04T23:50:56.745Z,19.00
2018-06-04T23:53:24.009Z,18.27
2018-06-04T23:55:51.304Z,19.77
2018-06-04T23:58:18.556Z,19.30
